createdAt,value
2023-06-10T00:00:14.144Z,18.90
2023-06-10T00:01:05.738Z,18.84
2023-06-10T00:02:01.005Z,18.84
2023-06-10T00:02:52.245Z,18.78
2023-06-10T00:03:44.476Z,18.69
2023-06-10T00:04:37.312Z,18.72
2023-06-10T00:05:31.149Z,18.88
2023-06-10T00:06:25.728Z,18.80
2023-06-10T00:07:16.670Z,18.82
2023-06-10T00:08:11.735Z,18.83
2023-06-10T00:09:06.336Z,18.82
2023-06-10T00:09:58.384Z,18.69
2023-06-10T00:10:49.029Z,18.56
2023-06-10T00:11:40.373Z,18.51
2023-06-10T00:12:32.285Z,18.50
2023-06-10T00:13:22.900Z,18.36
2023-06-10T00:14:13.707Z,18.31
2023-06-10T00:15:06.595Z,18.21
2023-06-10T00:15:57.602Z,18.06
2023-06-10T00:16:48.286Z,17.99
2023-06-10T00:17:40.924Z,17.94
2023-06-10T00:18:32.353Z,17.99
2023-06-10T00:19:26.664Z,17.91
2023-06-10T00:20:17.610Z,17.82
2023-06-10T00:21:08.528Z,17.82
2023-06-10T00:21:59.352Z,17.79
2023-06-10T00:22:50.769Z,17.79
2023-06-10T00:23:42.261Z,17.82
2023-06-10T00:24:32.986Z,17.77
2023-06-10T00:25:23.890Z,17.70
2023-06-10T00:26:15.041Z,17.63
2023-06-10T00:27:08.293Z,17.62
2023-06-10T00:28:01.472Z,17.60
2023-06-10T00:28:53.629Z,17.61
2023-06-10T00:29:48.275Z,17.63
2023-06-10T00:30:39.448Z,17.58
2023-06-10T00:31:31.523Z,17.49
2023-06-10T00:32:22.191Z,17.45
2023-06-10T00:33:12.846Z,17.44
2023-06-10T00:34:03.753Z,17.46
2023-06-10T00:34:56.203Z,17.48
2023-06-10T00:35:47.242Z,17.54
2023-06-10T00:36:38.310Z,17.44
2023-06-10T00:37:30.278Z,17.40
2023-06-10T00:38:21.483Z,17.33
2023-06-10T00:39:12.310Z,17.30
2023-06-10T00:40:04.381Z,17.31
2023-06-10T00:40:56.489Z,17.30
2023-06-10T00:41:48.696Z,17.32
2023-06-10T00:42:39.544Z,17.32
2023-06-10T00:43:30.339Z,17.53
2023-06-10T00:44:21.129Z,17.61
2023-06-10T00:45:12.838Z,17.73
2023-06-10T00:46:04.011Z,17.85
2023-06-10T00:46:56.942Z,17.84
2023-06-10T00:47:47.860Z,17.85
2023-06-10T00:48:40.149Z,17.81
2023-06-10T00:49:30.962Z,17.83
2023-06-10T00:50:21.892Z,17.89
2023-06-10T00:51:13.151Z,17.72
2023-06-10T00:52:07.033Z,17.69
2023-06-10T00:53:00.138Z,17.72
2023-06-10T00:53:51.735Z,17.80
2023-06-10T00:54:42.721Z,17.75
2023-06-10T00:55:33.912Z,17.81
2023-06-10T00:56:24.752Z,17.84
2023-06-10T00:57:16.547Z,17.88
2023-06-10T00:58:08.332Z,17.80
2023-06-10T00:58:59.666Z,17.75
2023-06-10T00:59:50.895Z,17.76
2023-06-10T01:00:41.780Z,17.71
2023-06-10T01:01:33.491Z,17.56
2023-06-10T01:02:26.746Z,17.65
2023-06-10T01:03:18.523Z,17.65
2023-06-10T01:04:13.378Z,17.57
2023-06-10T01:05:04.814Z,17.58
2023-06-10T01:06:05.972Z,17.62
2023-06-10T01:07:16.139Z,17.62
2023-06-10T01:08:22.042Z,17.55
2023-06-10T01:09:22.255Z,17.49
2023-06-10T01:10:25.153Z,17.52
2023-06-10T01:11:24.865Z,17.60
2023-06-10T01:12:26.252Z,17.46
2023-06-10T01:13:19.710Z,17.36
2023-06-10T01:14:10.901Z,17.40
2023-06-10T01:15:04.491Z,17.40
2023-06-10T01:15:57.189Z,17.46
2023-06-10T01:16:49.523Z,17.47
2023-06-10T01:18:03.756Z,17.49
2023-06-10T01:18:55.764Z,17.54
2023-06-10T01:19:56.078Z,17.55
2023-06-10T01:20:47.529Z,17.64
2023-06-10T01:21:38.833Z,17.65
2023-06-10T01:22:29.808Z,17.72
2023-06-10T01:23:20.631Z,17.69
2023-06-10T01:24:12.129Z,17.70
2023-06-10T01:25:07.006Z,17.65
2023-06-10T01:26:06.017Z,17.55
2023-06-10T01:27:01.612Z,17.54
2023-06-10T01:27:52.465Z,17.48
2023-06-10T01:29:09.575Z,17.45
2023-06-10T01:30:09.586Z,17.53
2023-06-10T01:31:19.403Z,17.70
2023-06-10T01:32:22.830Z,17.54
2023-06-10T01:33:19.745Z,17.38
2023-06-10T01:34:14.883Z,17.36
2023-06-10T01:35:09.477Z,17.53
2023-06-10T01:36:04.575Z,17.50
2023-06-10T01:36:57.628Z,17.51
2023-06-10T01:37:51.053Z,17.47
2023-06-10T01:38:45.174Z,17.53
2023-06-10T01:39:36.691Z,17.45
2023-06-10T01:40:27.934Z,17.46
2023-06-10T01:41:22.375Z,17.46
2023-06-10T01:42:13.458Z,17.44
2023-06-10T01:43:04.671Z,17.50
2023-06-10T01:43:56.391Z,17.44
2023-06-10T01:44:47.571Z,17.52
2023-06-10T01:45:38.428Z,17.54
2023-06-10T01:46:29.559Z,17.49
2023-06-10T01:47:20.786Z,17.52
2023-06-10T01:48:12.057Z,17.48
2023-06-10T01:49:02.820Z,17.32
2023-06-10T01:49:53.687Z,17.10
2023-06-10T01:50:45.106Z,17.07
2023-06-10T01:51:35.865Z,16.96
2023-06-10T01:52:27.102Z,17.01
2023-06-10T01:53:19.016Z,16.94
2023-06-10T01:54:11.456Z,16.89
2023-06-10T01:55:02.092Z,16.84
2023-06-10T01:55:52.989Z,16.73
2023-06-10T01:56:43.796Z,16.66
2023-06-10T01:57:35.705Z,16.61
2023-06-10T01:58:27.654Z,16.74
2023-06-10T01:59:18.597Z,16.74
2023-06-10T02:00:11.207Z,16.78
2023-06-10T02:01:09.767Z,16.75
2023-06-10T02:02:01.698Z,16.71
2023-06-10T02:02:52.534Z,16.57
2023-06-10T02:03:43.358Z,16.47
2023-06-10T02:04:33.963Z,16.39
2023-06-10T02:05:26.662Z,16.33
2023-06-10T02:06:17.513Z,16.27
2023-06-10T02:07:08.391Z,16.27
2023-06-10T02:07:59.251Z,16.51
2023-06-10T02:08:50.346Z,16.40
2023-06-10T02:09:41.098Z,16.32
2023-06-10T02:10:32.165Z,16.25
2023-06-10T02:11:23.172Z,16.18
2023-06-10T02:12:16.587Z,16.13
2023-06-10T02:13:09.303Z,16.17
2023-06-10T02:14:00.334Z,16.22
2023-06-10T02:14:51.796Z,16.28
2023-06-10T02:15:43.034Z,16.30
2023-06-10T02:16:33.941Z,16.24
2023-06-10T02:17:24.905Z,16.23
2023-06-10T02:18:16.043Z,16.18
2023-06-10T02:19:07.673Z,16.20
2023-06-10T02:20:00.819Z,16.17
2023-06-10T02:20:51.871Z,16.20
2023-06-10T02:21:42.809Z,16.15
2023-06-10T02:22:34.710Z,16.14
2023-06-10T02:23:25.554Z,16.09
2023-06-10T02:24:16.571Z,16.00
2023-06-10T02:25:08.660Z,15.95
2023-06-10T02:25:59.375Z,15.99
2023-06-10T02:26:50.405Z,15.94
2023-06-10T02:27:41.482Z,15.89
2023-06-10T02:28:33.208Z,15.89
2023-06-10T02:29:23.837Z,15.82
2023-06-10T02:30:15.452Z,15.78
2023-06-10T02:31:06.363Z,15.73
2023-06-10T02:31:57.523Z,15.72
2023-06-10T02:32:48.927Z,15.69
2023-06-10T02:33:41.667Z,15.66
2023-06-10T02:34:33.401Z,15.66
2023-06-10T02:35:25.380Z,15.65
2023-06-10T02:36:17.928Z,15.66
2023-06-10T02:37:08.643Z,15.67
2023-06-10T02:37:59.794Z,15.65
2023-06-10T02:38:51.366Z,15.65
2023-06-10T02:39:42.743Z,15.63
2023-06-10T02:40:35.930Z,15.67
2023-06-10T02:41:27.399Z,15.75
2023-06-10T02:42:19.286Z,15.74
2023-06-10T02:43:10.726Z,15.71
2023-06-10T02:44:01.918Z,15.75
2023-06-10T02:44:52.868Z,15.79
2023-06-10T02:45:58.657Z,15.73
2023-06-10T02:46:49.473Z,15.73
2023-06-10T02:48:04.597Z,15.72
2023-06-10T02:48:56.625Z,15.68
2023-06-10T02:49:49.514Z,15.63
2023-06-10T02:50:41.332Z,15.61
2023-06-10T02:51:40.792Z,15.58
2023-06-10T02:52:32.634Z,15.55
2023-06-10T02:53:24.103Z,15.52
2023-06-10T02:54:20.838Z,15.45
2023-06-10T02:55:12.343Z,15.43
2023-06-10T02:56:06.992Z,15.41
2023-06-10T02:56:57.702Z,15.38
2023-06-10T02:57:51.604Z,15.34
2023-06-10T02:58:44.013Z,15.33
2023-06-10T02:59:37.663Z,15.27
2023-06-10T03:00:29.711Z,15.23
2023-06-10T03:01:21.069Z,15.21
2023-06-10T03:02:29.639Z,15.22
2023-06-10T03:03:23.533Z,15.20
2023-06-10T03:04:30.223Z,15.20
2023-06-10T03:05:27.208Z,15.19
2023-06-10T03:06:20.428Z,15.20
2023-06-10T03:07:13.630Z,15.22
2023-06-10T03:08:04.909Z,15.23
2023-06-10T03:08:58.354Z,15.24
2023-06-10T03:09:49.290Z,15.25
2023-06-10T03:10:40.135Z,15.31
2023-06-10T03:11:32.073Z,15.29
2023-06-10T03:12:23.489Z,15.28
2023-06-10T03:13:15.566Z,15.24
2023-06-10T03:14:06.411Z,15.28
2023-06-10T03:14:57.654Z,15.27
2023-06-10T03:15:48.949Z,15.26
2023-06-10T03:16:43.728Z,15.24
2023-06-10T03:17:34.871Z,15.24
2023-06-10T03:18:29.561Z,15.23
2023-06-10T03:19:22.220Z,15.24
2023-06-10T03:20:16.776Z,15.20
2023-06-10T03:21:09.846Z,15.18
2023-06-10T03:22:11.740Z,15.13
2023-06-10T03:23:07.560Z,15.14
2023-06-10T03:23:59.129Z,15.16
2023-06-10T03:24:52.275Z,15.14
2023-06-10T03:25:43.967Z,15.13
2023-06-10T03:26:39.163Z,15.20
2023-06-10T03:27:32.452Z,15.21
2023-06-10T03:28:25.672Z,15.17
2023-06-10T03:29:16.980Z,15.18
2023-06-10T03:30:09.862Z,15.20
2023-06-10T03:31:02.143Z,15.25
2023-06-10T03:31:56.113Z,15.24
2023-06-10T03:32:47.826Z,15.20
2023-06-10T03:33:40.779Z,15.21
2023-06-10T03:34:31.657Z,15.23
2023-06-10T03:35:23.379Z,15.24
2023-06-10T03:36:14.290Z,15.36
2023-06-10T03:37:05.329Z,15.52
2023-06-10T03:37:56.718Z,15.80
2023-06-10T03:38:48.027Z,15.94
2023-06-10T03:39:38.782Z,16.09
2023-06-10T03:40:32.483Z,16.22
2023-06-10T03:41:23.899Z,16.32
2023-06-10T03:42:15.971Z,16.71
2023-06-10T03:43:06.753Z,16.70
2023-06-10T03:43:57.652Z,16.92
2023-06-10T03:44:48.473Z,17.02
2023-06-10T03:45:39.379Z,16.95
2023-06-10T03:46:30.522Z,17.11
2023-06-10T03:47:21.596Z,16.87
2023-06-10T03:48:13.238Z,16.95
2023-06-10T03:49:10.447Z,17.23
2023-06-10T03:50:02.509Z,17.26
2023-06-10T03:50:53.805Z,17.26
2023-06-10T03:51:46.524Z,17.20
2023-06-10T03:52:39.301Z,16.92
2023-06-10T03:53:30.522Z,16.88
2023-06-10T03:54:21.750Z,17.12
2023-06-10T03:55:14.660Z,17.47
2023-06-10T03:56:08.892Z,17.55
2023-06-10T03:56:59.727Z,17.29
2023-06-10T03:57:51.175Z,17.54
2023-06-10T03:58:44.677Z,17.78
2023-06-10T03:59:53.955Z,17.72
2023-06-10T04:00:46.565Z,17.93
2023-06-10T04:01:38.518Z,17.98
2023-06-10T04:02:29.710Z,18.08
2023-06-10T04:03:22.411Z,17.79
2023-06-10T04:04:17.926Z,17.60
2023-06-10T04:05:09.977Z,17.76
2023-06-10T04:06:01.202Z,17.58
2023-06-10T04:06:52.426Z,17.85
2023-06-10T04:07:47.317Z,18.14
2023-06-10T04:08:38.919Z,17.96
2023-06-10T04:09:29.719Z,18.07
2023-06-10T04:10:21.568Z,18.38
2023-06-10T04:11:12.363Z,18.46
2023-06-10T04:12:03.832Z,18.74
2023-06-10T04:12:55.041Z,18.69
2023-06-10T04:13:47.893Z,18.77
2023-06-10T04:14:39.002Z,18.99
2023-06-10T04:15:33.900Z,19.15
2023-06-10T04:16:29.642Z,19.23
2023-06-10T04:17:21.329Z,19.47
2023-06-10T04:18:12.708Z,19.30
2023-06-10T04:19:03.967Z,19.55
2023-06-10T04:19:55.878Z,19.80
2023-06-10T04:20:47.062Z,19.61
2023-06-10T04:21:38.419Z,19.26
2023-06-10T04:22:29.295Z,19.60
2023-06-10T04:23:20.046Z,19.45
2023-06-10T04:24:11.326Z,19.36
2023-06-10T04:25:02.095Z,19.42
2023-06-10T04:25:52.977Z,19.06
2023-06-10T04:26:44.201Z,19.11
2023-06-10T04:27:34.889Z,19.29
2023-06-10T04:28:28.069Z,19.29
2023-06-10T04:29:18.971Z,19.68
2023-06-10T04:30:10.221Z,19.00
2023-06-10T04:31:02.890Z,19.34
2023-06-10T04:31:54.017Z,19.66
2023-06-10T04:32:45.194Z,19.58
2023-06-10T04:33:39.824Z,19.80
2023-06-10T04:34:31.282Z,19.45
2023-06-10T04:35:22.694Z,19.34
2023-06-10T04:36:13.694Z,19.70
2023-06-10T04:37:05.243Z,19.93
2023-06-10T04:37:56.196Z,19.83
2023-06-10T04:38:47.818Z,19.53
2023-06-10T04:39:40.866Z,19.66
2023-06-10T04:40:32.956Z,19.80
2023-06-10T04:41:26.969Z,19.89
2023-06-10T04:42:18.651Z,19.48
2023-06-10T04:43:09.776Z,19.38
2023-06-10T04:44:01.390Z,18.63
2023-06-10T04:44:53.309Z,18.59
2023-06-10T04:45:46.861Z,19.07
2023-06-10T04:46:37.895Z,19.35
2023-06-10T04:47:29.420Z,19.62
2023-06-10T04:48:20.225Z,19.44
2023-06-10T04:49:12.261Z,19.36
2023-06-10T04:50:04.531Z,19.35
2023-06-10T04:50:55.689Z,19.09
2023-06-10T04:51:46.591Z,19.21
2023-06-10T04:52:37.300Z,18.89
2023-06-10T04:53:29.772Z,18.58
2023-06-10T04:54:20.543Z,18.63
2023-06-10T04:55:12.147Z,18.97
2023-06-10T04:56:03.310Z,18.75
2023-06-10T04:56:55.521Z,18.75
2023-06-10T04:57:46.395Z,18.54
2023-06-10T04:58:37.091Z,18.41
2023-06-10T04:59:27.945Z,18.19
2023-06-10T05:00:19.413Z,18.39
2023-06-10T05:01:10.199Z,18.83
2023-06-10T05:02:01.194Z,19.03
2023-06-10T05:02:54.630Z,18.87
2023-06-10T05:03:45.794Z,18.99
2023-06-10T05:04:37.402Z,19.41
2023-06-10T05:05:28.474Z,19.50
2023-06-10T05:06:19.465Z,19.66
2023-06-10T05:07:10.551Z,19.06
2023-06-10T05:08:01.393Z,19.35
2023-06-10T05:08:52.423Z,19.27
2023-06-10T05:09:43.309Z,19.46
2023-06-10T05:10:35.261Z,19.52
2023-06-10T05:11:26.319Z,19.40
2023-06-10T05:12:17.415Z,19.58
2023-06-10T05:13:08.119Z,19.01
2023-06-10T05:13:59.007Z,19.20
2023-06-10T05:14:49.826Z,19.56
2023-06-10T05:15:41.510Z,19.63
2023-06-10T05:16:32.550Z,19.03
2023-06-10T05:17:24.076Z,19.20
2023-06-10T05:18:15.011Z,19.64
2023-06-10T05:19:08.259Z,19.52
2023-06-10T05:19:59.580Z,19.93
2023-06-10T05:20:50.560Z,19.94
2023-06-10T05:21:41.427Z,20.14
2023-06-10T05:22:32.232Z,19.47
2023-06-10T05:23:23.264Z,19.94
2023-06-10T05:24:13.921Z,19.77
2023-06-10T05:25:04.930Z,19.61
2023-06-10T05:25:56.082Z,20.34
2023-06-10T05:26:46.923Z,20.02
2023-06-10T05:27:39.101Z,19.92
2023-06-10T05:28:29.882Z,19.81
2023-06-10T05:29:20.898Z,19.49
2023-06-10T05:30:12.480Z,20.44
2023-06-10T05:31:03.959Z,20.73
2023-06-10T05:31:54.883Z,20.14
2023-06-10T05:32:46.242Z,20.43
2023-06-10T05:33:36.826Z,20.20
2023-06-10T05:34:27.662Z,20.22
2023-06-10T05:35:18.602Z,19.81
2023-06-10T05:36:11.821Z,19.77
2023-06-10T05:37:03.187Z,19.91
2023-06-10T05:37:54.218Z,19.85
2023-06-10T05:38:45.094Z,19.92
2023-06-10T05:39:38.648Z,19.81
2023-06-10T05:40:29.380Z,19.99
2023-06-10T05:41:20.286Z,19.95
2023-06-10T05:42:11.479Z,20.09
2023-06-10T05:43:02.497Z,19.86
2023-06-10T05:43:53.154Z,20.07
2023-06-10T05:44:44.022Z,20.10
2023-06-10T05:45:34.898Z,19.85
2023-06-10T05:46:25.758Z,20.04
2023-06-10T05:47:16.306Z,20.37
2023-06-10T05:48:07.201Z,19.91
2023-06-10T05:48:58.111Z,19.79
2023-06-10T05:49:50.953Z,20.09
2023-06-10T05:50:43.609Z,20.24
2023-06-10T05:51:34.852Z,20.33
2023-06-10T05:52:25.549Z,20.13
2023-06-10T05:53:16.706Z,20.19
2023-06-10T05:54:07.747Z,19.82
2023-06-10T05:54:58.714Z,19.91
2023-06-10T05:55:49.898Z,19.99
2023-06-10T05:56:40.827Z,19.91
2023-06-10T05:57:31.720Z,19.39
2023-06-10T05:58:22.522Z,19.45
2023-06-10T05:59:13.304Z,19.40
2023-06-10T06:00:05.483Z,19.94
2023-06-10T06:01:03.511Z,20.23
2023-06-10T06:01:54.283Z,20.43
2023-06-10T06:02:45.184Z,20.45
2023-06-10T06:03:36.313Z,20.12
2023-06-10T06:04:27.352Z,19.85
2023-06-10T06:05:18.127Z,19.99
2023-06-10T06:06:08.961Z,19.79
2023-06-10T06:06:59.785Z,19.70
2023-06-10T06:07:50.501Z,19.73
2023-06-10T06:08:41.378Z,19.66
2023-06-10T06:09:32.163Z,19.91
2023-06-10T06:10:22.890Z,20.67
2023-06-10T06:11:14.734Z,20.21
2023-06-10T06:12:07.939Z,20.11
2023-06-10T06:12:58.745Z,20.04
2023-06-10T06:13:52.338Z,19.75
2023-06-10T06:14:45.850Z,20.03
2023-06-10T06:15:36.833Z,20.42
2023-06-10T06:16:27.825Z,20.56
2023-06-10T06:17:18.672Z,20.59
2023-06-10T06:18:09.479Z,20.70
2023-06-10T06:19:00.253Z,20.72
2023-06-10T06:19:51.219Z,21.05
2023-06-10T06:20:42.254Z,20.95
2023-06-10T06:21:32.943Z,21.32
2023-06-10T06:22:23.955Z,21.62
2023-06-10T06:23:14.787Z,21.38
2023-06-10T06:24:06.244Z,20.85
2023-06-10T06:24:57.306Z,20.76
2023-06-10T06:25:48.284Z,20.76
2023-06-10T06:26:39.195Z,20.25
2023-06-10T06:27:30.026Z,19.92
2023-06-10T06:28:22.119Z,19.56
2023-06-10T06:29:13.211Z,19.98
2023-06-10T06:30:04.482Z,20.34
2023-06-10T06:30:59.052Z,20.46
2023-06-10T06:31:50.363Z,20.80
2023-06-10T06:32:41.206Z,20.90
2023-06-10T06:33:32.038Z,20.87
2023-06-10T06:34:22.808Z,21.16
2023-06-10T06:35:13.778Z,21.08
2023-06-10T06:36:04.873Z,20.77
2023-06-10T06:36:55.904Z,20.63
2023-06-10T06:37:47.648Z,20.72
2023-06-10T06:38:43.987Z,19.49
2023-06-10T06:39:35.104Z,19.84
2023-06-10T06:40:25.882Z,19.57
2023-06-10T06:41:16.909Z,20.07
2023-06-10T06:42:08.265Z,20.13
2023-06-10T06:43:19.651Z,20.64
2023-06-10T06:44:21.313Z,20.52
2023-06-10T06:45:17.551Z,19.99
2023-06-10T06:46:08.347Z,19.75
2023-06-10T06:46:59.152Z,19.65
2023-06-10T06:47:49.999Z,19.57
2023-06-10T06:48:40.813Z,19.28
2023-06-10T06:49:31.868Z,19.28
2023-06-10T06:50:23.049Z,19.24
2023-06-10T06:51:14.290Z,19.33
2023-06-10T06:52:05.562Z,19.58
2023-06-10T06:52:56.418Z,19.53
2023-06-10T06:53:47.494Z,18.96
2023-06-10T06:54:38.639Z,19.23
2023-06-10T06:55:29.448Z,19.52
2023-06-10T06:56:20.437Z,19.01
2023-06-10T06:57:11.768Z,19.09
2023-06-10T06:58:05.101Z,19.15
2023-06-10T06:58:58.237Z,18.81
2023-06-10T06:59:49.364Z,18.58
2023-06-10T07:00:40.184Z,19.19
2023-06-10T07:01:31.317Z,19.29
2023-06-10T07:02:22.302Z,19.70
2023-06-10T07:03:13.202Z,19.80
2023-06-10T07:04:04.116Z,19.78
2023-06-10T07:04:57.154Z,19.96
2023-06-10T07:05:48.416Z,20.00
2023-06-10T07:06:39.237Z,20.06
2023-06-10T07:07:30.169Z,20.15
2023-06-10T07:08:21.220Z,20.28
2023-06-10T07:09:12.439Z,20.43
2023-06-10T07:10:03.669Z,20.45
2023-06-10T07:10:55.264Z,20.24
2023-06-10T07:11:46.495Z,19.79
2023-06-10T07:12:37.240Z,18.97
2023-06-10T07:13:28.076Z,19.60
2023-06-10T07:14:18.950Z,19.91
2023-06-10T07:15:10.427Z,19.77
2023-06-10T07:16:01.432Z,20.12
2023-06-10T07:16:52.087Z,20.40
2023-06-10T07:17:43.328Z,20.15
2023-06-10T07:18:35.048Z,20.20
2023-06-10T07:19:25.864Z,19.81
2023-06-10T07:20:16.869Z,19.12
2023-06-10T07:21:07.773Z,19.43
2023-06-10T07:21:58.506Z,19.60
2023-06-10T07:22:49.327Z,20.07
2023-06-10T07:23:43.302Z,20.45
2023-06-10T07:24:34.023Z,20.50
2023-06-10T07:25:24.771Z,20.41
2023-06-10T07:26:15.707Z,19.78
2023-06-10T07:27:08.231Z,20.02
2023-06-10T07:27:58.974Z,20.04
2023-06-10T07:28:49.911Z,19.47
2023-06-10T07:29:41.109Z,19.52
2023-06-10T07:30:31.852Z,19.57
2023-06-10T07:31:22.673Z,19.41
2023-06-10T07:32:13.455Z,19.55
2023-06-10T07:33:04.418Z,19.59
2023-06-10T07:33:55.696Z,19.82
2023-06-10T07:34:46.522Z,19.99
2023-06-10T07:35:37.341Z,20.21
2023-06-10T07:36:29.607Z,20.33
2023-06-10T07:37:20.881Z,20.38
2023-06-10T07:38:11.795Z,20.81
2023-06-10T07:39:02.823Z,20.93
2023-06-10T07:39:53.915Z,21.05
2023-06-10T07:40:44.749Z,20.59
2023-06-10T07:41:36.291Z,20.67
2023-06-10T07:42:27.342Z,21.20
2023-06-10T07:43:18.302Z,21.02
2023-06-10T07:44:09.125Z,20.81
2023-06-10T07:44:59.743Z,20.79
2023-06-10T07:45:50.741Z,20.84
2023-06-10T07:46:41.565Z,20.62
2023-06-10T07:47:34.013Z,21.02
2023-06-10T07:48:25.120Z,21.12
2023-06-10T07:49:16.121Z,21.11
2023-06-10T07:50:07.528Z,21.08
2023-06-10T07:50:58.435Z,20.88
2023-06-10T07:51:49.357Z,20.77
2023-06-10T07:52:40.327Z,20.69
2023-06-10T07:53:31.039Z,20.05
2023-06-10T07:54:21.854Z,20.12
2023-06-10T07:55:12.922Z,20.31
2023-06-10T07:56:03.553Z,20.40
2023-06-10T07:56:54.466Z,20.03
2023-06-10T07:57:45.166Z,20.36
2023-06-10T07:58:38.215Z,20.65
2023-06-10T07:59:29.082Z,20.55
2023-06-10T08:00:20.658Z,20.74
2023-06-10T08:01:11.870Z,20.78
2023-06-10T08:02:02.742Z,21.05
2023-06-10T08:02:53.726Z,20.96
2023-06-10T08:03:45.269Z,21.07
2023-06-10T08:04:36.897Z,20.99
2023-06-10T08:05:27.961Z,21.01
2023-06-10T08:06:18.893Z,21.09
2023-06-10T08:07:09.724Z,21.06
2023-06-10T08:08:04.039Z,21.17
2023-06-10T08:08:54.860Z,21.35
2023-06-10T08:09:45.745Z,21.49
2023-06-10T08:10:36.770Z,21.52
2023-06-10T08:11:29.434Z,21.95
2023-06-10T08:12:21.378Z,21.80
2023-06-10T08:13:12.339Z,21.82
2023-06-10T08:14:03.316Z,21.85
2023-06-10T08:14:54.877Z,21.96
2023-06-10T08:15:46.268Z,21.77
2023-06-10T08:16:37.378Z,21.96
2023-06-10T08:17:28.782Z,22.19
2023-06-10T08:18:19.439Z,22.19
2023-06-10T08:19:10.491Z,22.34
2023-06-10T08:20:02.354Z,22.03
2023-06-10T08:20:53.169Z,21.88
2023-06-10T08:21:44.341Z,21.96
2023-06-10T08:22:35.146Z,21.97
2023-06-10T08:23:26.000Z,22.39
2023-06-10T08:24:19.016Z,22.48
2023-06-10T08:25:10.849Z,22.41
2023-06-10T08:26:02.276Z,22.49
2023-06-10T08:26:53.060Z,22.47
2023-06-10T08:27:44.305Z,22.59
2023-06-10T08:28:35.085Z,22.51
2023-06-10T08:29:26.592Z,22.15
2023-06-10T08:30:17.638Z,21.93
2023-06-10T08:31:08.432Z,22.03
2023-06-10T08:31:59.363Z,22.05
2023-06-10T08:32:50.166Z,22.08
2023-06-10T08:33:40.760Z,22.17
2023-06-10T08:34:34.845Z,22.22
2023-06-10T08:35:25.745Z,21.99
2023-06-10T08:36:16.911Z,22.13
2023-06-10T08:37:08.303Z,21.96
2023-06-10T08:37:59.385Z,21.91
2023-06-10T08:38:50.243Z,21.99
2023-06-10T08:39:40.906Z,21.99
2023-06-10T08:40:31.970Z,22.15
2023-06-10T08:41:25.830Z,22.09
2023-06-10T08:42:37.584Z,22.11
2023-06-10T08:43:31.330Z,21.86
2023-06-10T08:44:31.972Z,22.14
2023-06-10T08:45:24.661Z,22.29
2023-06-10T08:46:16.168Z,22.18
2023-06-10T08:47:19.079Z,22.45
2023-06-10T08:48:12.063Z,22.40
2023-06-10T08:49:08.589Z,22.16
2023-06-10T08:50:05.007Z,22.22
2023-06-10T08:50:58.332Z,22.31
2023-06-10T08:51:52.393Z,22.33
2023-06-10T08:52:45.135Z,22.79
2023-06-10T08:53:38.798Z,22.88
2023-06-10T08:54:33.358Z,22.68
2023-06-10T08:55:33.038Z,22.62
2023-06-10T08:56:27.060Z,23.16
2023-06-10T08:57:21.293Z,23.31
2023-06-10T08:58:14.001Z,23.47
2023-06-10T08:59:05.030Z,23.42
2023-06-10T08:59:57.884Z,23.05
2023-06-10T09:00:48.908Z,23.08
2023-06-10T09:01:40.137Z,23.38
2023-06-10T09:02:32.601Z,23.50
2023-06-10T09:03:25.461Z,23.48
2023-06-10T09:04:19.260Z,23.30
2023-06-10T09:05:11.045Z,23.30
2023-06-10T09:06:05.743Z,23.34
2023-06-10T09:06:57.370Z,23.30
2023-06-10T09:07:52.428Z,23.57
2023-06-10T09:08:44.061Z,23.35
2023-06-10T09:09:36.525Z,23.60
2023-06-10T09:10:28.078Z,23.50
2023-06-10T09:11:19.225Z,23.26
2023-06-10T09:12:10.571Z,23.23
2023-06-10T09:13:01.529Z,23.35
2023-06-10T09:13:52.475Z,23.50
2023-06-10T09:14:43.958Z,23.59
2023-06-10T09:15:35.095Z,23.73
2023-06-10T09:16:26.655Z,23.53
2023-06-10T09:17:18.262Z,23.46
2023-06-10T09:18:09.572Z,23.29
2023-06-10T09:19:00.578Z,23.45
2023-06-10T09:19:54.836Z,23.59
2023-06-10T09:20:46.759Z,23.61
2023-06-10T09:21:37.461Z,23.70
2023-06-10T09:22:29.315Z,23.65
2023-06-10T09:23:19.986Z,23.89
2023-06-10T09:24:10.775Z,24.05
2023-06-10T09:25:10.285Z,23.62
2023-06-10T09:26:01.316Z,23.68
2023-06-10T09:27:03.049Z,23.75
2023-06-10T09:27:57.791Z,24.11
2023-06-10T09:28:51.749Z,24.80
2023-06-10T09:29:53.549Z,24.43
2023-06-10T09:30:44.587Z,23.81
2023-06-10T09:31:36.847Z,23.83
2023-06-10T09:32:27.957Z,24.21
2023-06-10T09:33:18.898Z,24.64
2023-06-10T09:34:13.938Z,24.80
2023-06-10T09:35:10.575Z,24.95
2023-06-10T09:36:03.497Z,25.17
2023-06-10T09:36:54.443Z,25.09
2023-06-10T09:37:45.575Z,24.88
2023-06-10T09:38:36.929Z,24.76
2023-06-10T09:39:27.946Z,24.56
2023-06-10T09:40:19.152Z,24.44
2023-06-10T09:41:10.027Z,24.18
2023-06-10T09:42:00.965Z,24.45
2023-06-10T09:43:00.242Z,24.33
2023-06-10T09:43:51.323Z,24.43
2023-06-10T09:44:42.277Z,24.10
2023-06-10T09:45:34.170Z,24.01
2023-06-10T09:46:25.407Z,24.24
2023-06-10T09:47:24.140Z,23.85
2023-06-10T09:48:15.026Z,23.66
2023-06-10T09:49:05.800Z,23.62
2023-06-10T09:49:56.587Z,23.75
2023-06-10T09:50:47.719Z,24.13
2023-06-10T09:51:38.736Z,24.01
2023-06-10T09:52:30.622Z,24.30
2023-06-10T09:53:22.082Z,24.21
2023-06-10T09:54:12.927Z,24.05
2023-06-10T09:55:04.514Z,24.15
2023-06-10T09:55:55.502Z,23.98
2023-06-10T09:56:47.849Z,24.20
2023-06-10T09:57:40.210Z,24.35
2023-06-10T09:58:43.322Z,24.34
2023-06-10T09:59:34.804Z,24.50
2023-06-10T10:00:27.073Z,25.02
2023-06-10T10:01:18.134Z,25.01
2023-06-10T10:02:15.918Z,24.83
2023-06-10T10:03:08.120Z,24.58
2023-06-10T10:03:59.267Z,24.74
2023-06-10T10:04:50.222Z,24.87
2023-06-10T10:05:40.998Z,25.02
2023-06-10T10:06:31.820Z,25.05
2023-06-10T10:07:24.690Z,25.03
2023-06-10T10:08:15.884Z,24.73
2023-06-10T10:09:07.213Z,24.48
2023-06-10T10:09:58.198Z,24.05
2023-06-10T10:10:48.888Z,24.30
2023-06-10T10:11:40.465Z,24.32
2023-06-10T10:12:32.078Z,24.20
2023-06-10T10:13:24.744Z,24.04
2023-06-10T10:14:18.296Z,24.10
2023-06-10T10:15:11.939Z,24.15
2023-06-10T10:16:17.684Z,24.37
2023-06-10T10:17:11.985Z,24.42
2023-06-10T10:18:12.350Z,24.33
2023-06-10T10:19:23.847Z,24.31
2023-06-10T10:20:19.795Z,24.19
2023-06-10T10:21:14.761Z,24.66
2023-06-10T10:22:12.101Z,24.84
2023-06-10T10:23:05.121Z,24.49
2023-06-10T10:24:02.653Z,24.44
2023-06-10T10:25:07.077Z,24.53
2023-06-10T10:26:01.438Z,24.64
2023-06-10T10:26:57.376Z,24.41
2023-06-10T10:28:11.087Z,24.14
2023-06-10T10:29:26.286Z,24.19
2023-06-10T10:30:18.758Z,24.24
2023-06-10T10:31:11.923Z,24.38
2023-06-10T10:32:04.733Z,24.50
2023-06-10T10:32:56.310Z,24.54
2023-06-10T10:33:59.213Z,24.58
2023-06-10T10:35:08.850Z,24.20
2023-06-10T10:36:01.419Z,24.26
2023-06-10T10:36:52.555Z,24.41
2023-06-10T10:37:44.041Z,24.50
2023-06-10T10:38:35.638Z,24.31
2023-06-10T10:39:29.233Z,24.46
2023-06-10T10:40:22.801Z,24.51
2023-06-10T10:41:14.402Z,24.68
2023-06-10T10:42:06.788Z,24.51
2023-06-10T10:42:59.447Z,24.31
2023-06-10T10:43:52.688Z,24.26
2023-06-10T10:44:44.384Z,24.40
2023-06-10T10:45:35.734Z,24.42
2023-06-10T10:46:26.566Z,24.51
2023-06-10T10:47:22.849Z,24.49
2023-06-10T10:48:15.663Z,24.20
2023-06-10T10:49:07.757Z,24.29
2023-06-10T10:50:00.574Z,24.40
2023-06-10T10:50:59.057Z,24.52
2023-06-10T10:52:00.417Z,24.66
2023-06-10T10:52:57.653Z,24.47
2023-06-10T10:54:16.575Z,24.54
2023-06-10T10:55:13.873Z,24.80
2023-06-10T10:56:19.698Z,24.77
2023-06-10T10:57:10.231Z,24.71
2023-06-10T10:58:06.566Z,24.65
2023-06-10T10:59:08.071Z,24.57
2023-06-10T11:00:05.899Z,24.70
2023-06-10T11:00:56.878Z,24.85
2023-06-10T11:01:48.130Z,24.98
2023-06-10T11:02:42.993Z,24.91
2023-06-10T11:03:44.563Z,25.16
2023-06-10T11:04:35.969Z,25.25
2023-06-10T11:05:49.081Z,25.38
2023-06-10T11:06:40.484Z,25.49
2023-06-10T11:07:32.828Z,25.30
2023-06-10T11:08:30.025Z,25.19
2023-06-10T11:09:31.395Z,25.32
2023-06-10T11:10:34.089Z,25.23
2023-06-10T11:11:29.774Z,25.17
2023-06-10T11:12:25.135Z,25.24
2023-06-10T11:13:16.807Z,25.28
2023-06-10T11:14:10.821Z,25.35
2023-06-10T11:15:01.921Z,25.49
2023-06-10T11:15:52.663Z,25.47
2023-06-10T11:16:44.927Z,25.67
2023-06-10T11:17:36.281Z,25.95
2023-06-10T11:18:29.281Z,25.69